sensor_id;sensor_type;location;lat;lon;timestamp;temperature;humidity
9820;DHT22;4949;48.482;9.206;2023-03-26T00:01:38;9.40;68.60
9820;DHT22;4949;48.482;9.206;2023-03-26T00:06:38;9.30;67.50
9820;DHT22;4949;48.482;9.206;2023-03-26T00:11:41;9.20;68.00
9820;DHT22;4949;48.482;9.206;2023-03-26T00:16:43;9.40;68.90
9820;DHT22;4949;48.482;9.206;2023-03-26T00:21:47;9.30;69.90
9820;DHT22;4949;48.482;9.206;2023-03-26T00:26:50;9.30;70.50
9820;DHT22;4949;48.482;9.206;2023-03-26T00:31:52;9.30;69.00
9820;DHT22;4949;48.482;9.206;2023-03-26T00:36:56;9.20;71.00
9820;DHT22;4949;48.482;9.206;2023-03-26T00:42:02;9.20;72.00
9820;DHT22;4949;48.482;9.206;2023-03-26T00:47:06;9.20;73.20
9820;DHT22;4949;48.482;9.206;2023-03-26T00:52:07;9.20;73.00
9820;DHT22;4949;48.482;9.206;2023-03-26T00:57:08;9.10;73.10
9820;DHT22;4949;48.482;9.206;2023-03-26T01:02:12;8.90;73.20
9820;DHT22;4949;48.482;9.206;2023-03-26T01:07:18;8.90;73.70
9820;DHT22;4949;48.482;9.206;2023-03-26T01:12:27;8.90;74.20
9820;DHT22;4949;48.482;9.206;2023-03-26T01:17:31;9.00;74.00
9820;DHT22;4949;48.482;9.206;2023-03-26T01:22:38;8.90;73.20
9820;DHT22;4949;48.482;9.206;2023-03-26T01:27:51;8.90;72.10
9820;DHT22;4949;48.482;9.206;2023-03-26T01:38:25;8.80;72.80
9820;DHT22;4949;48.482;9.206;2023-03-26T01:48:50;8.80;73.40
9820;DHT22;4949;48.482;9.206;2023-03-26T01:53:54;8.80;73.20
9820;DHT22;4949;48.482;9.206;2023-03-26T02:09:58;8.80;73.10
9820;DHT22;4949;48.482;9.206;2023-03-26T02:15:05;8.70;73.30
9820;DHT22;4949;48.482;9.206;2023-03-26T02:20:11;8.70;73.70
9820;DHT22;4949;48.482;9.206;2023-03-26T02:25:21;8.70;73.90
9820;DHT22;4949;48.482;9.206;2023-03-26T02:30:25;8.80;74.00
9820;DHT22;4949;48.482;9.206;2023-03-26T02:35:26;8.70;73.50
9820;DHT22;4949;48.482;9.206;2023-03-26T02:40:26;8.70;73.90
9820;DHT22;4949;48.482;9.206;2023-03-26T02:45:27;8.70;73.20
9820;DHT22;4949;48.482;9.206;2023-03-26T02:50:28;8.60;73.10
9820;DHT22;4949;48.482;9.206;2023-03-26T02:55:34;8.70;72.90
9820;DHT22;4949;48.482;9.206;2023-03-26T03:00:35;8.70;72.90
9820;DHT22;4949;48.482;9.206;2023-03-26T03:05:38;8.70;72.90
9820;DHT22;4949;48.482;9.206;2023-03-26T03:10:43;8.70;72.60
9820;DHT22;4949;48.482;9.206;2023-03-26T03:15:57;8.70;72.50
9820;DHT22;4949;48.482;9.206;2023-03-26T03:20:58;8.70;71.70
9820;DHT22;4949;48.482;9.206;2023-03-26T03:25:59;8.90;70.10
9820;DHT22;4949;48.482;9.206;2023-03-26T03:30:59;8.90;69.80
9820;DHT22;4949;48.482;9.206;2023-03-26T03:36:00;8.80;70.30
9820;DHT22;4949;48.482;9.206;2023-03-26T03:41:01;8.70;70.60
9820;DHT22;4949;48.482;9.206;2023-03-26T03:46:02;8.70;70.80
9820;DHT22;4949;48.482;9.206;2023-03-26T03:51:03;8.50;70.90
9820;DHT22;4949;48.482;9.206;2023-03-26T03:56:05;8.50;71.20
9820;DHT22;4949;48.482;9.206;2023-03-26T04:01:09;8.40;71.30
9820;DHT22;4949;48.482;9.206;2023-03-26T04:06:12;8.50;71.40
9820;DHT22;4949;48.482;9.206;2023-03-26T04:11:18;8.40;71.20
9820;DHT22;4949;48.482;9.206;2023-03-26T04:16:18;8.50;70.90
9820;DHT22;4949;48.482;9.206;2023-03-26T04:21:20;8.60;71.00
9820;DHT22;4949;48.482;9.206;2023-03-26T04:26:21;8.50;70.60
9820;DHT22;4949;48.482;9.206;2023-03-26T04:31:23;8.50;70.50
9820;DHT22;4949;48.482;9.206;2023-03-26T04:36:29;8.50;70.60
9820;DHT22;4949;48.482;9.206;2023-03-26T04:41:33;8.50;70.40
9820;DHT22;4949;48.482;9.206;2023-03-26T04:46:34;8.60;69.80
9820;DHT22;4949;48.482;9.206;2023-03-26T04:51:39;8.60;69.40
9820;DHT22;4949;48.482;9.206;2023-03-26T04:56:53;8.60;69.30
9820;DHT22;4949;48.482;9.206;2023-03-26T05:01:57;8.60;68.80
9820;DHT22;4949;48.482;9.206;2023-03-26T05:07:00;8.70;67.90
9820;DHT22;4949;48.482;9.206;2023-03-26T05:12:05;8.70;67.50
9820;DHT22;4949;48.482;9.206;2023-03-26T05:17:13;8.80;67.00
9820;DHT22;4949;48.482;9.206;2023-03-26T05:22:14;8.90;65.40
9820;DHT22;4949;48.482;9.206;2023-03-26T05:27:15;9.00;59.00
9820;DHT22;4949;48.482;9.206;2023-03-26T05:32:19;9.30;58.00
9820;DHT22;4949;48.482;9.206;2023-03-26T05:37:24;9.20;58.20
9820;DHT22;4949;48.482;9.206;2023-03-26T05:42:25;9.30;59.20
9820;DHT22;4949;48.482;9.206;2023-03-26T05:47:26;9.30;59.30
9820;DHT22;4949;48.482;9.206;2023-03-26T05:52:29;9.30;59.50
9820;DHT22;4949;48.482;9.206;2023-03-26T05:57:32;9.30;59.60
9820;DHT22;4949;48.482;9.206;2023-03-26T06:02:37;9.20;62.20
9820;DHT22;4949;48.482;9.206;2023-03-26T06:07:42;9.10;63.90
9820;DHT22;4949;48.482;9.206;2023-03-26T06:12:42;9.00;64.60
9820;DHT22;4949;48.482;9.206;2023-03-26T06:17:43;8.90;65.80
9820;DHT22;4949;48.482;9.206;2023-03-26T06:22:44;8.80;65.60
9820;DHT22;4949;48.482;9.206;2023-03-26T06:27:45;8.80;65.50
9820;DHT22;4949;48.482;9.206;2023-03-26T06:32:48;8.90;65.50
9820;DHT22;4949;48.482;9.206;2023-03-26T06:37:51;8.90;66.50
9820;DHT22;4949;48.482;9.206;2023-03-26T06:42:51;8.90;69.30
9820;DHT22;4949;48.482;9.206;2023-03-26T06:47:52;8.90;70.80
9820;DHT22;4949;48.482;9.206;2023-03-26T06:52:55;8.70;71.30
9820;DHT22;4949;48.482;9.206;2023-03-26T06:57:56;8.70;71.70
9820;DHT22;4949;48.482;9.206;2023-03-26T07:02:58;8.70;72.10
9820;DHT22;4949;48.482;9.206;2023-03-26T07:08:00;8.70;72.90
9820;DHT22;4949;48.482;9.206;2023-03-26T07:13:00;8.70;73.10
9820;DHT22;4949;48.482;9.206;2023-03-26T07:18:01;8.70;74.10
9820;DHT22;4949;48.482;9.206;2023-03-26T07:23:05;8.70;75.10
9820;DHT22;4949;48.482;9.206;2023-03-26T07:34:00;8.60;77.00
9820;DHT22;4949;48.482;9.206;2023-03-26T07:39:13;8.50;77.60
9820;DHT22;4949;48.482;9.206;2023-03-26T07:49:35;8.50;78.60
9820;DHT22;4949;48.482;9.206;2023-03-26T07:54:38;8.50;79.00
9820;DHT22;4949;48.482;9.206;2023-03-26T08:05:45;8.60;78.20
9820;DHT22;4949;48.482;9.206;2023-03-26T08:16:24;8.70;78.50
9820;DHT22;4949;48.482;9.206;2023-03-26T08:21:43;8.70;79.00
9820;DHT22;4949;48.482;9.206;2023-03-26T08:32:33;8.60;79.30
9820;DHT22;4949;48.482;9.206;2023-03-26T08:37:34;8.70;78.60
9820;DHT22;4949;48.482;9.206;2023-03-26T08:42:58;8.80;78.30
9820;DHT22;4949;48.482;9.206;2023-03-26T09:27:14;9.40;82.10
9820;DHT22;4949;48.482;9.206;2023-03-26T09:38:41;9.90;81.70
9820;DHT22;4949;48.482;9.206;2023-03-26T10:05:38;10.20;72.20
9820;DHT22;4949;48.482;9.206;2023-03-26T10:27:43;9.30;80.80
9820;DHT22;4949;48.482;9.206;2023-03-26T10:38:32;9.00;79.80
9820;DHT22;4949;48.482;9.206;2023-03-26T10:55:31;10.10;79.00
9820;DHT22;4949;48.482;9.206;2023-03-26T11:00:41;10.50;78.50
9820;DHT22;4949;48.482;9.206;2023-03-26T11:11:47;10.40;70.00
9820;DHT22;4949;48.482;9.206;2023-03-26T11:32:59;9.80;74.50
9820;DHT22;4949;48.482;9.206;2023-03-26T11:38:10;9.80;74.90
9820;DHT22;4949;48.482;9.206;2023-03-26T11:43:28;10.00;74.50
9820;DHT22;4949;48.482;9.206;2023-03-26T11:48:58;10.40;72.40
9820;DHT22;4949;48.482;9.206;2023-03-26T11:54:03;10.50;71.40
9820;DHT22;4949;48.482;9.206;2023-03-26T11:59:21;11.00;69.70
9820;DHT22;4949;48.482;9.206;2023-03-26T12:04:45;11.40;69.00
9820;DHT22;4949;48.482;9.206;2023-03-26T12:09:57;11.90;66.20
9820;DHT22;4949;48.482;9.206;2023-03-26T12:15:00;12.50;64.90
9820;DHT22;4949;48.482;9.206;2023-03-26T12:20:01;13.00;63.10
9820;DHT22;4949;48.482;9.206;2023-03-26T12:25:37;13.70;63.50
9820;DHT22;4949;48.482;9.206;2023-03-26T12:36:35;14.60;56.80
9820;DHT22;4949;48.482;9.206;2023-03-26T12:41:39;14.30;54.70
9820;DHT22;4949;48.482;9.206;2023-03-26T12:46:44;14.60;54.20
9820;DHT22;4949;48.482;9.206;2023-03-26T12:52:23;14.30;51.50
9820;DHT22;4949;48.482;9.206;2023-03-26T12:57:36;14.40;51.50
9820;DHT22;4949;48.482;9.206;2023-03-26T13:07:52;14.50;50.10
9820;DHT22;4949;48.482;9.206;2023-03-26T13:23:46;14.30;48.50
9820;DHT22;4949;48.482;9.206;2023-03-26T13:29:17;14.40;48.80
9820;DHT22;4949;48.482;9.206;2023-03-26T13:45:45;14.60;46.20
9820;DHT22;4949;48.482;9.206;2023-03-26T13:51:02;14.30;47.80
9820;DHT22;4949;48.482;9.206;2023-03-26T13:56:11;14.10;49.60
9820;DHT22;4949;48.482;9.206;2023-03-26T14:01:19;13.50;53.60
9820;DHT22;4949;48.482;9.206;2023-03-26T14:17:30;14.10;49.80
9820;DHT22;4949;48.482;9.206;2023-03-26T14:22:45;14.50;47.50
9820;DHT22;4949;48.482;9.206;2023-03-26T14:34:15;14.70;45.30
9820;DHT22;4949;48.482;9.206;2023-03-26T14:39:30;14.80;45.40
9820;DHT22;4949;48.482;9.206;2023-03-26T15:35:33;11.70;54.30
9820;DHT22;4949;48.482;9.206;2023-03-26T15:45:51;10.30;68.40
9820;DHT22;4949;48.482;9.206;2023-03-26T15:51:35;9.80;73.30
9820;DHT22;4949;48.482;9.206;2023-03-26T15:57:29;9.70;74.50
9820;DHT22;4949;48.482;9.206;2023-03-26T16:02:40;9.80;75.30
9820;DHT22;4949;48.482;9.206;2023-03-26T16:14:23;9.60;74.50
9820;DHT22;4949;48.482;9.206;2023-03-26T16:25:11;9.60;75.40
9820;DHT22;4949;48.482;9.206;2023-03-26T16:30:07;9.80;74.50
9820;DHT22;4949;48.482;9.206;2023-03-26T16:56:48;9.80;70.50
9820;DHT22;4949;48.482;9.206;2023-03-26T17:02:25;9.80;70.30
9820;DHT22;4949;48.482;9.206;2023-03-26T17:07:34;9.70;70.90
9820;DHT22;4949;48.482;9.206;2023-03-26T17:13:13;9.70;70.30
9820;DHT22;4949;48.482;9.206;2023-03-26T17:24:09;9.40;69.80
9820;DHT22;4949;48.482;9.206;2023-03-26T17:29:47;9.50;69.10
9820;DHT22;4949;48.482;9.206;2023-03-26T17:34:53;9.20;70.40
9820;DHT22;4949;48.482;9.206;2023-03-26T17:56:40;8.90;72.20
9820;DHT22;4949;48.482;9.206;2023-03-26T18:01:53;8.90;72.70
9820;DHT22;4949;48.482;9.206;2023-03-26T18:18:26;8.70;72.90
9820;DHT22;4949;48.482;9.206;2023-03-26T18:23:37;8.70;72.90
9820;DHT22;4949;48.482;9.206;2023-03-26T18:28:43;8.90;72.80
9820;DHT22;4949;48.482;9.206;2023-03-26T18:33:48;8.70;73.50
9820;DHT22;4949;48.482;9.206;2023-03-26T18:38:49;8.70;73.90
9820;DHT22;4949;48.482;9.206;2023-03-26T18:43:51;8.80;72.40
9820;DHT22;4949;48.482;9.206;2023-03-26T18:48:51;8.60;72.70
9820;DHT22;4949;48.482;9.206;2023-03-26T18:53:58;8.50;72.40
9820;DHT22;4949;48.482;9.206;2023-03-26T18:59:02;8.30;72.70
9820;DHT22;4949;48.482;9.206;2023-03-26T19:04:05;8.40;72.40
9820;DHT22;4949;48.482;9.206;2023-03-26T19:09:08;8.50;71.40
9820;DHT22;4949;48.482;9.206;2023-03-26T19:14:14;8.50;71.50
9820;DHT22;4949;48.482;9.206;2023-03-26T19:19:21;8.40;71.70
9820;DHT22;4949;48.482;9.206;2023-03-26T19:24:25;8.30;71.10
9820;DHT22;4949;48.482;9.206;2023-03-26T19:29:31;8.30;71.40
9820;DHT22;4949;48.482;9.206;2023-03-26T19:34:37;8.30;71.60
9820;DHT22;4949;48.482;9.206;2023-03-26T19:39:52;8.10;72.00
9820;DHT22;4949;48.482;9.206;2023-03-26T19:44:58;8.00;72.90
9820;DHT22;4949;48.482;9.206;2023-03-26T19:50:25;8.00;73.30
9820;DHT22;4949;48.482;9.206;2023-03-26T19:55:27;7.80;73.80
9820;DHT22;4949;48.482;9.206;2023-03-26T20:00:28;7.90;73.20
9820;DHT22;4949;48.482;9.206;2023-03-26T20:05:32;7.90;72.70
9820;DHT22;4949;48.482;9.206;2023-03-26T20:10:33;7.60;74.50
9820;DHT22;4949;48.482;9.206;2023-03-26T20:15:35;7.60;74.40
9820;DHT22;4949;48.482;9.206;2023-03-26T20:20:40;7.70;73.70
9820;DHT22;4949;48.482;9.206;2023-03-26T20:25:49;7.60;74.40
9820;DHT22;4949;48.482;9.206;2023-03-26T20:30:54;7.60;74.30
9820;DHT22;4949;48.482;9.206;2023-03-26T20:35:57;7.60;74.20
9820;DHT22;4949;48.482;9.206;2023-03-26T20:40:58;7.70;74.20
9820;DHT22;4949;48.482;9.206;2023-03-26T20:45:59;7.70;73.90
9820;DHT22;4949;48.482;9.206;2023-03-26T20:51:02;7.70;73.70
9820;DHT22;4949;48.482;9.206;2023-03-26T20:56:04;7.60;73.70
9820;DHT22;4949;48.482;9.206;2023-03-26T21:01:05;7.70;73.40
9820;DHT22;4949;48.482;9.206;2023-03-26T21:06:08;7.80;73.20
9820;DHT22;4949;48.482;9.206;2023-03-26T21:11:51;7.60;73.50
9820;DHT22;4949;48.482;9.206;2023-03-26T21:16:56;7.60;73.30
9820;DHT22;4949;48.482;9.206;2023-03-26T21:32:24;7.50;72.30
9820;DHT22;4949;48.482;9.206;2023-03-26T21:37:26;7.50;72.70
9820;DHT22;4949;48.482;9.206;2023-03-26T21:42:31;7.50;72.80
9820;DHT22;4949;48.482;9.206;2023-03-26T21:47:32;7.40;72.60
9820;DHT22;4949;48.482;9.206;2023-03-26T21:52:34;7.50;71.90
9820;DHT22;4949;48.482;9.206;2023-03-26T22:03:23;7.50;72.20
9820;DHT22;4949;48.482;9.206;2023-03-26T22:08:33;7.50;72.10
9820;DHT22;4949;48.482;9.206;2023-03-26T22:13:37;7.60;71.90
9820;DHT22;4949;48.482;9.206;2023-03-26T22:18:40;7.70;71.90
9820;DHT22;4949;48.482;9.206;2023-03-26T22:23:43;7.60;71.90
9820;DHT22;4949;48.482;9.206;2023-03-26T22:28:52;7.60;72.60
9820;DHT22;4949;48.482;9.206;2023-03-26T22:33:53;7.60;73.10
9820;DHT22;4949;48.482;9.206;2023-03-26T22:38:55;7.60;74.10
9820;DHT22;4949;48.482;9.206;2023-03-26T22:43:56;7.70;74.20
9820;DHT22;4949;48.482;9.206;2023-03-26T22:48:58;7.50;74.60
9820;DHT22;4949;48.482;9.206;2023-03-26T22:53:59;7.60;74.80
9820;DHT22;4949;48.482;9.206;2023-03-26T22:59:00;7.50;76.30
9820;DHT22;4949;48.482;9.206;2023-03-26T23:04:05;7.50;76.90
9820;DHT22;4949;48.482;9.206;2023-03-26T23:09:06;7.50;77.20
9820;DHT22;4949;48.482;9.206;2023-03-26T23:14:07;7.40;78.80
9820;DHT22;4949;48.482;9.206;2023-03-26T23:19:08;7.30;79.40
9820;DHT22;4949;48.482;9.206;2023-03-26T23:24:11;7.20;80.30
9820;DHT22;4949;48.482;9.206;2023-03-26T23:29:14;7.20;81.40
9820;DHT22;4949;48.482;9.206;2023-03-26T23:34:15;7.20;82.00
9820;DHT22;4949;48.482;9.206;2023-03-26T23:39:18;7.10;81.90
9820;DHT22;4949;48.482;9.206;2023-03-26T23:44:18;7.10;82.30
9820;DHT22;4949;48.482;9.206;2023-03-26T23:49:19;7.20;82.50
9820;DHT22;4949;48.482;9.206;2023-03-26T23:54:23;7.00;83.10
9820;DHT22;4949;48.482;9.206;2023-03-26T23:59:26;7.00;82.90
